KOLY/OLY METAR and TAF weather

Enter ICAO airport designator
Station Type Date Time Source
KOLY METAR 2022/05/25 01:15 UTC NOAA

KOLY 250115Z AUTO 00000KT 10SM CLR 23/15 A2998 RMK AO2 T02260152


Station Type Date Time Source
KOLY Decoded METAR 2022/05/25 01:15 UTC NOAA

Olney-Noble, Olney-Noble Airport, IL, United States (KOLY) 38-43-19N 088-10-35W
May 24, 2022 - 09:15 PM EDT / 2022.05.25 0115 UTC
Wind: Calm:0
Visibility: 10 mile(s):0
Sky conditions: clear
Temperature: 72.7 F (22.6 C)
Dew Point: 59.4 F (15.2 C)
Relative Humidity: 62%
Pressure (altimeter): 29.98 in. Hg (1015 hPa)
ob: KOLY 250115Z AUTO 00000KT 10SM CLR 23/15 A2998 RMK AO2 T02260152
cycle: 1

Station Type Date Time Source
KOLY TAF UTC NOAA

Error!

Example: see airport list